createdAt,value
2023-04-19T00:02:28.969Z,97.60
2023-04-19T00:17:34.411Z,97.80
2023-04-19T00:32:39.009Z,97.80
2023-04-19T00:47:43.763Z,97.90
2023-04-19T01:02:49.815Z,98.10
2023-04-19T01:17:57.380Z,98.10
2023-04-19T01:33:01.924Z,98.20
2023-04-19T01:48:08.273Z,98.50
2023-04-19T02:03:13.128Z,98.30
2023-04-19T02:18:18.376Z,98.30
2023-04-19T02:33:24.029Z,98.40
2023-04-19T02:48:28.521Z,98.60
2023-04-19T03:03:33.191Z,98.60
2023-04-19T03:18:37.966Z,98.60
2023-04-19T03:33:43.577Z,98.90
2023-04-19T03:48:50.258Z,98.60
2023-04-19T04:03:56.704Z,98.60
2023-04-19T04:19:02.264Z,98.80
2023-04-19T04:34:10.129Z,99.10
2023-04-19T04:49:22.623Z,99.20
2023-04-19T05:04:27.566Z,98.90
2023-04-19T05:19:32.148Z,99.00
2023-04-19T05:34:44.060Z,99.10
2023-04-19T05:49:52.220Z,99.10
2023-04-19T06:05:09.727Z,99.60
2023-04-19T06:20:14.935Z,99.10
2023-04-19T06:35:19.830Z,99.20
2023-04-19T06:50:24.624Z,99.30
2023-04-19T07:05:29.257Z,99.50
2023-04-19T07:20:33.730Z,99.40
2023-04-19T07:35:40.274Z,99.30
2023-04-19T07:50:44.795Z,99.40
2023-04-19T08:05:49.415Z,99.50
2023-04-19T08:20:53.900Z,99.40
2023-04-19T08:35:58.409Z,99.90
2023-04-19T08:51:05.369Z,99.60
2023-04-19T09:06:12.005Z,99.90
2023-04-19T09:21:28.944Z,99.60
2023-04-19T09:36:34.667Z,99.40
2023-04-19T09:51:43.687Z,99.60
2023-04-19T10:07:14.017Z,99.80
2023-04-19T10:22:16.523Z,99.20
2023-04-19T10:37:24.598Z,99.00
2023-04-19T10:52:30.586Z,98.40
2023-04-19T11:07:40.891Z,98.00
2023-04-19T11:22:47.476Z,96.30
2023-04-19T11:37:52.666Z,96.00
2023-04-19T11:52:57.200Z,93.10
2023-04-19T12:08:06.639Z,93.60
2023-04-19T12:23:13.860Z,93.50
2023-04-19T12:38:18.327Z,93.00
2023-04-19T12:53:24.253Z,92.20
2023-04-19T13:23:38.444Z,90.20
2023-04-19T13:38:42.865Z,87.80
2023-04-19T13:53:47.426Z,85.60
2023-04-19T14:08:51.884Z,75.90
2023-04-19T14:23:56.931Z,63.40
2023-04-19T14:39:01.572Z,59.90
2023-04-19T14:54:05.990Z,55.50
2023-04-19T15:09:10.830Z,53.20
2023-04-19T15:24:15.368Z,49.70
2023-04-19T15:39:19.819Z,52.30
2023-04-19T15:54:24.243Z,53.00
2023-04-19T16:09:28.649Z,53.90
2023-04-19T16:24:33.208Z,54.90
2023-04-19T16:39:37.620Z,56.70
2023-04-19T16:54:43.594Z,60.50
2023-04-19T17:09:48.079Z,62.60
2023-04-19T17:24:54.182Z,65.00
2023-04-19T17:39:58.655Z,65.80
2023-04-19T17:55:04.585Z,64.70
2023-04-19T18:10:10.186Z,64.60
2023-04-19T18:25:14.806Z,64.90
2023-04-19T18:40:19.588Z,66.50
2023-04-19T18:55:24.143Z,68.50
2023-04-19T19:10:48.506Z,69.90
2023-04-19T19:25:53.345Z,70.80
2023-04-19T19:56:13.028Z,72.70
2023-04-19T20:11:23.537Z,73.30
2023-04-19T20:26:28.191Z,75.30
2023-04-19T20:41:32.737Z,76.40
2023-04-19T20:56:37.196Z,78.70
2023-04-19T21:11:41.686Z,79.90
2023-04-19T21:26:46.069Z,68.30
2023-04-19T21:41:50.543Z,62.60
2023-04-19T21:56:55.053Z,59.10
2023-04-19T22:12:00.051Z,59.00
2023-04-19T22:27:04.811Z,58.70
2023-04-19T22:42:09.506Z,58.30
2023-04-19T22:57:14.056Z,58.30
2023-04-19T23:12:18.503Z,57.90
2023-04-19T23:27:23.199Z,57.70
2023-04-19T23:42:27.641Z,57.20
2023-04-19T23:57:34.961Z,57.20
